ADDS METAR Data INFO
IDs: Format: Raw Decoded Include TAF

Data at: 2018 UTC 22 Apr 2018

KEYW 221953Z 12012KT 10SM FEW012 29/23 A3002 RMK AO2 SLP164 T02890228